地図

経路データ

SID SEASON NUMBER BASIN SUBBASIN NAME ISO_TIME NATURE LAT LON WMO_WIND WMO_PRES WMO_AGENCY TRACK_TYPE DIST2LAND LANDFALL IFLAG USA_AGENCY USA_ATCF_ID USA_LAT USA_LON USA_RECORD USA_STATUS USA_WIND USA_PRES USA_SSHS USA_R34_NE USA_R34_SE USA_R34_SW USA_R34_NW USA_R50_NE USA_R50_SE USA_R50_SW USA_R50_NW USA_R64_NE USA_R64_SE USA_R64_SW USA_R64_NW USA_POCI USA_ROCI USA_RMW USA_EYE TOKYO_LAT TOKYO_LON TOKYO_GRADE TOKYO_WIND TOKYO_PRES TOKYO_R50_DIR TOKYO_R50_LONG TOKYO_R50_SHORT TOKYO_R30_DIR TOKYO_R30_LONG TOKYO_R30_SHORT TOKYO_LAND CMA_LAT CMA_LON CMA_CAT CMA_WIND CMA_PRES HKO_LAT HKO_LON HKO_CAT HKO_WIND HKO_PRES NEWDELHI_LAT NEWDELHI_LON NEWDELHI_GRADE NEWDELHI_WIND NEWDELHI_PRES NEWDELHI_CI NEWDELHI_DP NEWDELHI_POCI REUNION_LAT REUNION_LON REUNION_TYPE REUNION_WIND REUNION_PRES REUNION_TNUM REUNION_CI REUNION_RMW REUNION_R34_NE REUNION_R34_SE REUNION_R34_SW REUNION_R34_NW REUNION_R50_NE REUNION_R50_SE REUNION_R50_SW REUNION_R50_NW REUNION_R64_NE REUNION_R64_SE REUNION_R64_SW REUNION_R64_NW BOM_LAT BOM_LON BOM_TYPE BOM_WIND BOM_PRES BOM_TNUM BOM_CI BOM_RMW BOM_R34_NE BOM_R34_SE BOM_R34_SW BOM_R34_NW BOM_R50_NE BOM_R50_SE BOM_R50_SW BOM_R50_NW BOM_R64_NE BOM_R64_SE BOM_R64_SW BOM_R64_NW BOM_ROCI BOM_POCI BOM_EYE BOM_POS_METHOD BOM_PRES_METHOD NADI_LAT NADI_LON NADI_CAT NADI_WIND NADI_PRES WELLINGTON_LAT WELLINGTON_LON WELLINGTON_WIND WELLINGTON_PRES DS824_LAT DS824_LON DS824_STAGE DS824_WIND DS824_PRES TD9636_LAT TD9636_LON TD9636_STAGE TD9636_WIND TD9636_PRES TD9635_LAT TD9635_LON TD9635_WIND TD9635_PRES TD9635_ROCI NEUMANN_LAT NEUMANN_LON NEUMANN_CLASS NEUMANN_WIND NEUMANN_PRES MLC_LAT MLC_LON MLC_CLASS MLC_WIND MLC_PRES USA_GUST BOM_GUST BOM_GUST_PER REUNION_GUST REUNION_GUST_PER USA_SEAHGT USA_SEARAD_NE USA_SEARAD_SE USA_SEARAD_SW USA_SEARAD_NW STORM_SPEED STORM_DIR
1994244N07151 1994 76 WP MM KINNA 1994-09-01 00:00:00 NR 7.00000 150.500 main 1076 1076 O_____________ jtwc_wp WP241994 7.00000 150.500 15 -1 12 323
1994244N07151 1994 76 WP MM KINNA 1994-09-01 03:00:00 NR 7.45757 150.148 main 1116 1116 P_____________ WP241994 7.45757 150.148 15 -1 11 322
1994244N07151 1994 76 WP MM KINNA 1994-09-01 06:00:00 NR 7.90000 149.800 main 1151 1151 O_____________ jtwc_wp WP241994 7.90000 149.800 15 -1 11 321
1994244N07151 1994 76 WP MM KINNA 1994-09-01 09:00:00 NR 8.31494 149.457 main 1188 1186 P_____________ WP241994 8.31494 149.457 15 -1 11 319
1994244N07151 1994 76 WP MM KINNA 1994-09-01 12:00:00 NR 8.70000 149.100 main 1224 1224 O_____________ jtwc_wp WP241994 8.70000 149.100 15 -1 11 315
1994244N07151 1994 76 WP MM KINNA 1994-09-01 15:00:00 NR 9.06498 148.707 main 1263 1262 P_____________ WP241994 9.06498 148.707 15 -1 11 312
1994244N07151 1994 76 WP MM KINNA 1994-09-01 18:00:00 NR 9.40000 148.300 main 1292 1292 O_____________ jtwc_wp WP241994 9.40000 148.300 15 -1 10 310
1994244N07151 1994 76 WP MM KINNA 1994-09-01 21:00:00 NR 9.72989 147.915 main 1323 1323 P_____________ WP241994 9.72989 147.915 15 -1 10 307
1994244N07151 1994 76 WP MM KINNA 1994-09-02 00:00:00 NR 10.0000 147.500 main 1355 1355 O_____________ jtwc_wp WP241994 10.0000 147.500 15 -1 10 297
1994244N07151 1994 76 WP MM KINNA 1994-09-02 03:00:00 NR 10.1725 147.015 main 1378 1378 P_____________ WP241994 10.1725 147.015 15 -1 10 287
1994244N07151 1994 76 WP MM KINNA 1994-09-02 06:00:00 NR 10.3000 146.500 main 1389 1389 O_____________ jtwc_wp WP241994 10.3000 146.500 15 -1 11 285
1994244N07151 1994 76 WP MM KINNA 1994-09-02 09:00:00 NR 10.4425 145.985 main 1402 1402 P_____________ WP241994 10.4425 145.985 15 -1 10 287
1994244N07151 1994 76 WP MM KINNA 1994-09-02 12:00:00 NR 10.6000 145.500 main 1428 1428 O_____________ jtwc_wp WP241994 10.6000 145.500 15 -1 10 291
1994244N07151 1994 76 WP MM KINNA 1994-09-02 15:00:00 NR 10.7849 145.085 main 1454 1454 P_____________ WP241994 10.7849 145.085 15 -1 9 297
1994244N07151 1994 76 WP MM KINNA 1994-09-02 18:00:00 NR 11.0000 144.700 main 1482 1482 O_____________ jtwc_wp WP241994 11.0000 144.700 15 -1 9 300
1994244N07151 1994 76 WP MM KINNA 1994-09-02 21:00:00 NR 11.2275 144.292 main 1511 1511 P_____________ WP241994 11.2275 144.292 15 -1 9 303
1994244N07151 1994 76 WP MM KINNA 1994-09-03 00:00:00 NR 11.5000 143.900 main 1552 1552 O_____________ jtwc_wp WP241994 11.5000 143.900 15 -1 10 310
1994244N07151 1994 76 WP MM KINNA 1994-09-03 03:00:00 NR 11.8349 143.542 main 1594 1594 P_____________ WP241994 11.8349 143.542 15 -1 10 316
1994244N07151 1994 76 WP MM KINNA 1994-09-03 06:00:00 NR 12.2000 143.200 main 1642 1642 O_____________ jtwc_wp WP241994 12.2000 143.200 15 -1 10 315
1994244N07151 1994 76 WP MM KINNA 1994-09-03 09:00:00 NR 12.5275 142.835 main 1659 1659 P_____________ WP241994 12.5275 142.835 15 -1 10 316
1994244N07151 1994 76 WP MM KINNA 1994-09-03 12:00:00 NR 12.9000 142.500 main 1692 1692 O_____________ jtwc_wp WP241994 12.9000 142.500 15 -1 10 325
1994244N07151 1994 76 WP MM KINNA 1994-09-03 15:00:00 NR 13.3700 142.227 main 1736 1736 P_____________ WP241994 13.3700 142.227 15 -1 11 334
1994244N07151 1994 76 WP MM KINNA 1994-09-03 18:00:00 NR 13.9000 142.000 main 1778 1775 O_____________ jtwc_wp WP241994 13.9000 142.000 15 -1 12 337
1994244N07151 1994 76 WP MM KINNA 1994-09-03 21:00:00 NR 14.4425 141.770 main 1777 1765 P_____________ WP241994 14.4425 141.770 17 -1 12 341
1994244N07151 1994 76 WP MM KINNA 1994-09-04 00:00:00 NR 15.0000 141.600 main 1768 1763 O_____________ jtwc_wp WP241994 15.0000 141.600 20 -1 11 348
1994244N07151 1994 76 WP MM KINNA 1994-09-04 03:00:00 NR 15.5575 141.527 main 1768 1768 P_____________ WP241994 15.5575 141.527 20 -1 11 355
1994244N07151 1994 76 WP MM KINNA 1994-09-04 06:00:00 NR 16.1000 141.500 main 1779 1779 O_____________ jtwc_wp WP241994 16.1000 141.500 20 -1 11 356
1994244N07151 1994 76 WP MM KINNA 1994-09-04 09:00:00 NR 16.6075 141.450 main 1781 1781 P_____________ WP241994 16.6075 141.450 20 -1 10 354
1994244N07151 1994 76 WP MM KINNA 1994-09-04 12:00:00 NR 17.1000 141.400 main 1796 1796 O_____________ jtwc_wp WP241994 17.1000 141.400 20 -1 10 355
1994244N07151 1994 76 WP MM KINNA 1994-09-04 15:00:00 NR 17.6000 141.350 main 1801 1788 P_____________ WP241994 17.6000 141.350 22 -1 10 354
1994244N07151 1994 76 WP MM KINNA 1994-09-04 18:00:00 NR 18.1000 141.300 main 1788 1741 O_____________ jtwc_wp WP241994 18.1000 141.300 25 -1 10 354
1994244N07151 1994 76 WP MM KINNA 1994-09-04 21:00:00 NR 18.6000 141.250 main 1735 1684 P_____________ WP241994 18.6000 141.250 25 -1 10 354
1994244N07151 1994 76 WP MM KINNA 1994-09-05 00:00:00 NR 19.1000 141.200 main 1684 1631 O_____________ jtwc_wp WP241994 19.1000 141.200 25 -1 10 355
1994244N07151 1994 76 WP MM KINNA 1994-09-05 03:00:00 NR 19.6075 141.150 main 1628 1565 P_____________ WP241994 19.6075 141.150 27 -1 11 337
1994244N07151 1994 76 WP MM KINNA 1994-09-05 06:00:00 TS 20.1143 140.743 1004 tokyo main 1562 1498 OOOO__________ jtwc_wp WP241994 20.1000 141.100 30 -1 20.0000 140.000 2 1004 0 0 0 20.0000 140.000 1 23 1004 20.4000 140.800 TD 25 1004 12 339
1994244N07151 1994 76 WP MM KINNA 1994-09-05 09:00:00 TS 20.7326 140.686 main 1498 1434 PPPP__________ WP241994 20.5575 141.050 30 -1 20.8201 140.267 2 1002 0 0 20.8201 140.264 1 26 1002 20.9075 140.800 TD 27 1002 12 0
1994244N07151 1994 76 WP MM KINNA 1994-09-05 12:00:00 TS 21.3231 140.723 1000 tokyo main 1434 1385 OOOO__________ jtwc_wp WP241994 21.0000 141.000 30 -1 21.5000 140.500 2 1000 0 0 0 21.5000 140.500 1 29 1000 21.4000 140.800 TD 30 1000 11 4
1994244N07151 1994 76 WP MM KINNA 1994-09-05 15:00:00 TS 21.8068 140.776 main 1385 1343 PPPP__________ WP241994 21.4575 140.950 32 -1 21.9524 140.673 2 1000 0 0 21.9524 140.680 1 29 1000 21.8650 140.800 TD 30 1000 9 6
1994244N07151 1994 76 WP MM KINNA 1994-09-05 18:00:00 TS 22.2000 140.825 1000 tokyo main 1343 1304 OOOO__________ jtwc_wp WP241994 21.9000 140.900 35 0 22.3000 140.800 2 1000 0 0 0 22.3000 140.800 1 29 1000 22.3000 140.800 TD 30 1000 8 6
1994244N07151 1994 76 WP MM KINNA 1994-09-05 21:00:00 TS 22.6037 140.865 main 1304 1263 PPPP__________ WP241994 22.3150 140.857 35 0 22.6925 140.930 2 998 0 0 22.6925 140.873 1 33 998 22.7150 140.800 TD 32 999 8 3
1994244N07151 1994 76 WP MM KINNA 1994-09-06 00:00:00 TS 23.0000 140.875 35 996 tokyo main 1263 1222 OOOO__________ jtwc_wp WP241994 22.7000 140.800 35 0 23.1000 141.000 3 35 996 0 9 120 120 0 23.1000 140.900 2 38 996 23.1000 140.800 TS 35 998 8 0
1994244N07151 1994 76 WP MM KINNA 1994-09-06 03:00:00 TS 23.4319 140.851 main 1222 1176 PPPP__________ WP241994 23.0650 140.708 37 0 23.5950 140.973 3 35 996 0 9 120 120 23.5950 140.915 2 38 996 23.4725 140.807 TS 35 998 8 355
1994244N07151 1994 76 WP MM KINNA 1994-09-06 06:00:00 TS 23.8000 140.800 35 996 tokyo main 1176 1152 OOOO__________ jtwc_wp WP241994 23.4000 140.600 40 0 24.0000 140.900 3 35 996 0 9 120 120 0 24.0000 140.900 2 38 996 23.8000 140.800 TS 35 998 6 350
1994244N07151 1994 76 WP MM KINNA 1994-09-06 09:00:00 TS 24.0168 140.746 main 1152 1131 PPPP__________ WP241994 23.7225 140.493 40 0 24.1273 140.860 3 37 995 0 9 120 120 24.1375 140.865 2 38 995 24.0800 140.765 TS 37 996 4 343
1994244N07151 1994 76 WP MM KINNA 1994-09-06 12:00:00 TS 24.1750 140.675 40 994 tokyo main 1131 1107 OOOO__________ jtwc_wp WP241994 24.0000 140.400 40 0 24.2000 140.800 3 40 994 0 9 120 120 0 24.2000 140.800 2 38 995 24.3000 140.700 TS 40 994 4 338
1994244N07151 1994 76 WP MM KINNA 1994-09-06 15:00:00 TS 24.3700 140.591 40 994 tokyo main 1107 1093 POPP__________ WP241994 24.2225 140.350 42 0 24.4000 140.700 3 40 994 0 9 120 120 0 24.3925 140.708 2 38 995 24.4650 140.607 TS 40 994 4 337
1994244N07151 1994 76 WP MM KINNA 1994-09-06 18:00:00 TS 24.5500 140.500 45 992 tokyo main 1082 1068 OOOO__________ jtwc_wp WP241994 24.4000 140.300 45 0 24.6000 140.600 3 45 992 0 9 120 120 0 24.6000 140.600 2 38 995 24.6000 140.500 TS 40 994 4 333
1994244N07151 1994 76 WP MM KINNA 1994-09-06 21:00:00 TS 24.7144 140.400 45 992 tokyo main 1068 1054 POPP__________ WP241994 24.5500 140.200 45 0 24.8000 140.500 3 45 992 0 9 120 120 0 24.7575 140.500 2 43 993 24.7500 140.400 TS 40 994 4 329
1994244N07151 1994 76 WP MM KINNA 1994-09-07 00:00:00 TS 24.8500 140.300 45 992 tokyo main 1043 1029 OOOO__________ jtwc_wp WP241994 24.7000 140.100 45 0 24.9000 140.400 3 45 992 0 9 120 120 0 24.9000 140.400 3 48 992 24.9000 140.300 TS 40 994 4 331
1994244N07151 1994 76 WP MM KINNA 1994-09-07 03:00:00 TS 25.0250 140.212 45 992 tokyo main 1029 1005 POPP__________ WP241994 24.8925 140.050 45 0 25.1000 140.300 3 45 992 0 9 120 120 0 25.0575 140.300 3 48 992 25.0500 140.200 TS 40 994 4 334
1994244N07151 1994 76 WP MM KINNA 1994-09-07 06:00:00 TS 25.1750 140.125 45 992 tokyo main 1005 990 OOOO__________ jtwc_wp WP241994 25.1000 140.000 45 0 25.2000 140.200 3 45 992 0 9 120 120 0 25.2000 140.200 3 48 992 25.2000 140.100 TS 40 994 3 329
1994244N07151 1994 76 WP MM KINNA 1994-09-07 09:00:00 TS 25.3127 140.023 main 990 976 PPPP__________ WP241994 25.3000 139.908 47 0 25.2932 140.100 3 45 992 0 9 120 120 25.3075 140.092 3 48 992 25.3500 139.993 TS 40 994 3 327
1994244N07151 1994 76 WP MM KINNA 1994-09-07 12:00:00 TS 25.4500 139.925 45 992 tokyo main 966 952 OOOO__________ jtwc_wp WP241994 25.5000 139.800 50 0 25.4000 140.000 3 45 992 0 9 120 120 0 25.4000 140.000 3 48 992 25.5000 139.900 TS 40 994 3 329
1994244N07151 1994 76 WP MM KINNA 1994-09-07 15:00:00 TS 25.5869 139.842 main 952 942 PPPP__________ WP241994 25.7000 139.693 50 0 25.5350 139.893 3 45 992 0 9 120 120 25.4775 139.942 3 48 992 25.6350 139.842 TS 40 994 3 336
1994244N07151 1994 76 WP MM KINNA 1994-09-07 18:00:00 TS 25.7500 139.775 45 992 tokyo main 931 917 OOOO__________ jtwc_wp WP241994 25.9000 139.600 50 0 25.7000 139.800 3 45 992 0 9 120 120 0 25.6000 139.900 3 48 992 25.8000 139.800 TS 40 994 4 344
1994244N07151 1994 76 WP MM KINNA 1994-09-07 21:00:00 TS 25.9431 139.725 main 917 886 PPPP__________ WP241994 26.0925 139.535 50 0 25.8550 139.750 3 45 992 0 9 120 120 25.7975 139.865 3 48 991 26.0275 139.750 TS 42 992 5 349
1994244N07151 1994 76 WP MM KINNA 1994-09-08 00:00:00 TS 26.2000 139.675 45 992 tokyo main 886 852 OOOO__________ jtwc_wp WP241994 26.3000 139.500 50 0 26.1000 139.700 3 45 992 0 9 120 120 0 26.1000 139.800 3 48 990 26.3000 139.700 TS 45 990 6 349
1994244N07151 1994 76 WP MM KINNA 1994-09-08 03:00:00 TS 26.5588 139.589 main 842 807 PPPP__________ WP241994 26.5425 139.492 52 0 26.5425 139.585 3 45 991 0 9 120 120 26.5501 139.635 3 48 990 26.6000 139.643 TS 47 987 7 349
1994244N07151 1994 76 WP MM KINNA 1994-09-08 06:00:00 TS 26.9250 139.525 45 990 tokyo main 807 777 OOOO__________ jtwc_wp WP241994 26.8000 139.500 55 0 27.0000 139.500 3 45 990 0 9 120 120 0 27.0000 139.500 3 48 990 26.9000 139.600 STS 50 985 6 357
1994244N07151 1994 76 WP MM KINNA 1994-09-08 09:00:00 TS 27.1994 139.535 main 777 761 PPPP__________ WP241994 27.0575 139.493 55 0 27.2875 139.527 3 47 987 0 9 120 120 27.2875 139.527 3 48 990 27.1650 139.592 STS 50 985 5 5
1994244N07151 1994 76 WP MM KINNA 1994-09-08 12:00:00 TS 27.4250 139.575 50 985 tokyo main 761 742 OOOO__________ jtwc_wp WP241994 27.3000 139.500 55 0 27.5000 139.600 4 50 985 0 9 120 120 0 27.5000 139.600 3 48 990 27.4000 139.600 STS 50 985 4 7
1994244N07151 1994 76 WP MM KINNA 1994-09-08 15:00:00 TS 27.6362 139.593 main 742 722 PPPP__________ WP241994 27.5075 139.542 57 0 27.7150 139.650 4 50 982 0 9 120 120 27.7150 139.593 3 48 987 27.6075 139.585 STS 55 980 4 5
1994244N07151 1994 76 WP MM KINNA 1994-09-08 18:00:00 TS 27.8250 139.625 50 980 tokyo main 722 708 OOOO__________ jtwc_wp WP241994 27.7000 139.600 60 0 27.9000 139.700 4 50 980 0 9 120 120 0 27.9000 139.600 3 48 985 27.8000 139.600 STS 60 975 4 13
1994244N07151 1994 76 WP MM KINNA 1994-09-08 21:00:00 TS 28.0056 139.694 main 708 694 PPPP__________ WP241994 27.9000 139.643 62 0 28.0575 139.750 4 55 977 0 9 125 125 28.0575 139.692 3 53 982 28.0075 139.692 STS 62 972 4 20
1994244N07151 1994 76 WP MM KINNA 1994-09-09 00:00:00 TS 28.1750 139.775 60 975 tokyo main 694 684 OOOO__________ jtwc_wp WP241994 28.1000 139.700 65 1 28.2000 139.800 4 60 975 9 30 30 9 130 130 0 28.2000 139.800 3 58 980 28.2000 139.800 T 65 970 4 21
1994244N07151 1994 76 WP MM KINNA 1994-09-09 03:00:00 TS 28.3394 139.843 main 684 671 PPPP__________ WP241994 28.3000 139.800 67 1 28.3500 139.857 4 60 975 9 30 30 9 130 130 28.3500 139.858 3 63 977 28.3575 139.858 T 67 967 3 18
1994244N07151 1994 76 WP MM KINNA 1994-09-09 06:00:00 TS 28.5000 139.900 60 975 tokyo main 671 662 OOOO__________ jtwc_wp WP241994 28.5000 139.900 70 1 28.5000 139.900 4 60 975 9 30 30 9 130 130 0 28.5000 139.900 4 68 975 28.5000 139.900 T 70 965 3 19
1994244N07151 1994 76 WP MM KINNA 1994-09-09 09:00:00 TS 28.6456 139.958 main 668 650 PPPP__________ WP241994 28.6925 139.980 72 1 28.6275 139.915 4 62 972 9 40 40 9 145 145 28.6275 139.972 4 68 972 28.6350 139.965 T 70 965 3 11
1994244N07151 1994 76 WP MM KINNA 1994-09-09 12:00:00 TS 28.8250 139.975 65 970 tokyo main 650 617 OOOO__________ jtwc_wp WP241994 28.9000 140.000 75 1 28.8000 139.900 5 65 970 9 50 50 9 160 160 0 28.8000 140.000 4 68 970 28.8000 140.000 T 70 965 4 0
1994244N07151 1994 76 WP MM KINNA 1994-09-09 15:00:00 TS 29.0831 139.928 main 617 585 PPPP__________ WP241994 29.1425 139.930 75 1 29.0775 139.872 5 67 967 9 55 55 9 160 160 29.0775 139.930 4 68 970 29.0350 139.980 T 70 965 6 347
1994244N07151 1994 76 WP MM KINNA 1994-09-09 18:00:00 TS 29.3750 139.825 70 965 tokyo main 585 562 OOOO__________ jtwc_wp WP241994 29.4000 139.800 75 1 29.4000 139.800 5 70 965 9 60 60 9 160 160 0 29.4000 139.800 4 68 970 29.3000 139.900 T 70 965 6 340
1994244N07151 1994 76 WP MM KINNA 1994-09-09 21:00:00 TS 29.6500 139.690 main 553 524 PPPP__________ WP241994 29.6425 139.657 77 1 29.7075 139.665 5 72 962 9 65 65 9 160 160 29.7075 139.658 4 72 967 29.5425 139.780 T 70 965 6 335
1994244N07151 1994 76 WP MM KINNA 1994-09-10 00:00:00 TS 29.9250 139.525 75 960 tokyo main 524 486 OOOO__________ jtwc_wp WP241994 29.9000 139.500 80 1 30.0000 139.500 5 75 960 9 70 70 9 160 160 0 30.0000 139.500 4 77 965 29.8000 139.600 T 70 965 6 329
1994244N07151 1994 76 WP MM KINNA 1994-09-10 03:00:00 TS 30.1963 139.316 main 486 455 PPPP__________ WP241994 30.1925 139.313 82 1 30.2500 139.320 5 75 960 9 70 70 9 160 160 30.2500 139.320 4 77 962 30.0927 139.313 T 72 962 6 331
1994244N07151 1994 76 WP MM KINNA 1994-09-10 06:00:00 TS 30.4750 139.175 75 960 tokyo main 455 436 OOOO__________ jtwc_wp WP241994 30.5000 139.200 85 2 30.5000 139.200 5 75 960 9 70 70 9 160 160 0 30.5000 139.200 4 77 960 30.4000 139.100 T 75 960 6 349
1994244N07151 1994 76 WP MM KINNA 1994-09-10 09:00:00 TS 30.7655 139.184 main 425 393 PPPP__________ WP241994 30.7924 139.233 85 2 30.7849 139.190 5 75 960 9 70 70 9 160 160 30.7849 139.190 4 77 960 30.6999 139.125 T 75 960 6 12
1994244N07151 1994 76 WP MM KINNA 1994-09-10 12:00:00 TS 31.0750 139.325 75 960 tokyo main 393 362 OOOO__________ jtwc_wp WP241994 31.1000 139.400 85 2 31.1000 139.300 5 75 960 9 70 70 9 160 160 0 31.1000 139.300 4 77 960 31.0000 139.300 T 75 960 7 25
1994244N07151 1994 76 WP MM KINNA 1994-09-10 15:00:00 TS 31.3878 139.517 main 362 336 PPPP__________ WP241994 31.4273 139.640 85 2 31.4196 139.468 5 75 960 9 70 70 9 160 160 31.4271 139.468 4 77 960 31.2773 139.491 T 72 962 8 34
1994244N07151 1994 76 WP MM KINNA 1994-09-10 18:00:00 TS 31.7500 139.850 75 960 tokyo main 325 301 OOOO__________ jtwc_wp WP241994 31.8000 140.000 85 2 31.8000 139.800 5 75 960 9 70 70 9 160 160 0 31.8000 139.800 4 77 960 31.6000 139.800 T 70 965 11 42
1994244N07151 1994 76 WP MM KINNA 1994-09-10 21:00:00 TS 32.1769 140.342 main 301 269 PPPP__________ WP241994 32.2275 140.463 85 2 32.2702 140.340 5 72 962 9 65 65 9 155 155 32.2127 140.340 4 77 962 31.9972 140.226 T 67 967 13 45
1994244N07151 1994 76 WP MM KINNA 1994-09-11 00:00:00 TS 32.6750 140.950 70 965 tokyo main 265 239 OOOO__________ jtwc_wp WP241994 32.7000 141.000 85 2 32.8000 141.000 5 70 965 9 60 60 9 150 150 0 32.7000 141.000 4 77 965 32.5000 140.800 T 65 970 15 45
1994244N07151 1994 76 WP MM KINNA 1994-09-11 03:00:00 TS 33.2157 141.560 main 245 222 PPPP__________ WP241994 33.1544 141.514 82 1 33.3268 141.614 5 67 967 9 55 55 9 150 135 33.2693 141.614 4 72 967 33.1124 141.498 T 65 970 16 43
1994244N07151 1994 76 WP MM KINNA 1994-09-11 06:00:00 TS 33.8250 142.250 65 970 tokyo main 233 226 OOOO__________ jtwc_wp WP241994 33.7000 142.100 80 1 33.9000 142.300 5 65 970 9 50 50 2 150 120 0 33.9000 142.300 4 68 970 33.8000 142.300 T 65 970 17 44
1994244N07151 1994 76 WP MM KINNA 1994-09-11 09:00:00 TS 34.4519 143.022 main 232 232 PPPP__________ WP241994 34.3820 142.792 80 1 34.4817 143.086 5 62 972 9 45 45 2 150 120 34.4892 143.086 4 68 972 34.4544 143.123 T 60 975 19 45
1994244N07151 1994 76 WP MM KINNA 1994-09-11 12:00:00 TS 35.2000 143.900 60 975 tokyo main 276 276 OOOO__________ jtwc_wp WP241994 35.2000 143.600 80 1 35.2000 144.000 4 60 975 9 40 40 2 150 120 0 35.2000 144.000 4 68 975 35.2000 144.000 STS 55 980 23 42
1994244N07151 1994 76 WP MM KINNA 1994-09-11 15:00:00 TS 36.1165 144.881 main 361 358 PPPP__________ WP241994 36.0889 144.479 77 1 36.1403 145.070 4 57 977 9 35 35 2 150 110 36.1403 145.070 4 63 977 36.0965 144.907 STS 52 982 26 40
1994244N07151 1994 76 WP MM KINNA 1994-09-11 18:00:00 TS 37.1533 145.953 55 980 tokyo main 413 413 OOOO__________ jtwc_wp WP241994 37.1000 145.500 75 1 37.2000 146.200 4 55 980 9 30 30 2 150 100 0 37.2000 146.200 3 58 980 37.1000 145.900 STS 50 985 27 40
1994244N07151 1994 76 WP MM KINNA 1994-09-11 21:00:00 TS 38.1594 147.001 main 447 447 PPPP__________ WP241994 38.1721 146.624 70 1 38.1566 147.187 4 50 985 9 2 140 100 38.1566 147.187 3 53 982 38.1452 147.008 STS 47 987 28 39
1994244N07151 1994 76 WP MM KINNA 1994-09-12 00:00:00 TS 39.3231 148.200 45 990 tokyo main 488 442 OOOO__________ jtwc_wp WP241994 39.4000 148.000 65 1 39.3000 148.300 3 45 990 0 2 130 100 0 39.3000 148.300 3 48 985 39.2000 148.200 TS 45 990 34 39
1994244N07151 1994 76 WP MM KINNA 1994-09-12 03:00:00 TS 40.7903 149.760 main 443 393 PPP___________ WP241994 40.7798 149.686 60 0 40.7956 149.797 3 991 0 2 40.7956 149.797 3 43 988 TS 40 39
1994244N07151 1994 76 WP MM KINNA 1994-09-12 06:00:00 ET 42.4333 151.567 992 tokyo main 386 321 OOO___________ jtwc_wp WP241994 42.3000 151.700 55 0 42.5000 151.500 6 992 0 0 0 42.5000 151.500 9 38 992 44 39
1994244N07151 1994 76 WP MM KINNA 1994-09-12 09:00:00 ET 44.2029 153.530 main 320 319 PPP___________ WP241994 43.9242 153.933 50 0 44.3422 153.328 6 1000 0 0 44.3422 153.328 9 33 996 44 39
1994244N07151 1994 76 WP MM KINNA 1994-09-12 12:00:00 ET 45.8500 155.450 1008 tokyo main 392 350 OOO___________ jtwc_wp WP241994 45.5000 156.500 45 0 46.0000 155.000 6 1008 0 0 0 46.0000 155.000 9 29 1000 37 40
1994244N07151 1994 76 WP MM KINNA 1994-09-12 15:00:00 ET 47.0537 156.953 main 342 297 PPP___________ WP241994 46.8451 159.384 42 0 47.1072 156.131 6 1008 0 0 47.1552 156.166 9 29 1000 28 40
1994244N07151 1994 76 WP MM KINNA 1994-09-12 18:00:00 ET 48.0000 158.100 1008 tokyo main 291 203 OOO___________ jtwc_wp WP241994 48.0000 162.500 40 0 48.0000 157.000 6 1008 0 0 0 48.0000 157.000 9 29 1000 20 19
1994244N07151 1994 76 WP MM KINNA 1994-09-12 21:00:00 ET 48.9665 157.947 main 195 183 _P____________ WP241994 -1 48.9665 157.947 6 1008 0 0 9 21 16
1994244N07151 1994 76 WP MM KINNA 1994-09-13 00:00:00 ET 50.0000 159.000 1008 tokyo main 186 _O____________ -1 50.0000 159.000 6 1008 0 0 0 25 33

デジタル台風データ・検索

IBTrACS Databaseについて

本データベースは、米国NOAAが公開する1842年以降の世界の熱帯低気圧のベストトラックデータアーカイブInternational Best Track Archive for Climate Stewardship (IBTrACS)を、ウェブで閲覧しやすい形式に変換したものです。

最終更新日:2021-10-25